Meniu

AB meteo

EYSA 55 53 38N 023 23 42E

Hello!

Welcome to AB meteo!
Here you can find links to actual weather data and weather forecast.

Posted by moose 2009 January 13 Tuesday 23:40:26

METAR

869283117 4 EYSA 252250Z AUTO 36007KT 9999NDV OVC006 01/00 Q1020 R32R/29//95 R32L/29//95

TAF

81725804 13 TAF EYSA 252000Z 2521/2606 36008KT 5000 BR OVC003 TEMPO 2602/2606 0600 FZFG